sensor_id;sensor_type;location;lat;lon;timestamp;temperature;humidity
318;DHT22;146;53.448;10.228;2023-12-28T00:01:24;8.00;1.00
318;DHT22;146;53.448;10.228;2023-12-28T00:03:56;8.10;1.00
318;DHT22;146;53.448;10.228;2023-12-28T00:06:23;8.10;1.00
318;DHT22;146;53.448;10.228;2023-12-28T00:08:51;8.10;1.00
318;DHT22;146;53.448;10.228;2023-12-28T00:11:21;8.10;1.00
318;DHT22;146;53.448;10.228;2023-12-28T00:13:51;8.20;1.00
318;DHT22;146;53.448;10.228;2023-12-28T00:16:19;8.20;1.00
318;DHT22;146;53.448;10.228;2023-12-28T00:18:46;8.30;1.00
318;DHT22;146;53.448;10.228;2023-12-28T00:21:13;8.30;1.00
318;DHT22;146;53.448;10.228;2023-12-28T00:23:40;8.30;1.00
318;DHT22;146;53.448;10.228;2023-12-28T00:26:10;8.40;1.00
318;DHT22;146;53.448;10.228;2023-12-28T00:28:37;8.30;1.00
318;DHT22;146;53.448;10.228;2023-12-28T00:31:04;8.30;1.00
318;DHT22;146;53.448;10.228;2023-12-28T00:33:30;8.40;1.00
318;DHT22;146;53.448;10.228;2023-12-28T00:36:00;8.40;1.00
318;DHT22;146;53.448;10.228;2023-12-28T00:38:27;8.50;1.00
318;DHT22;146;53.448;10.228;2023-12-28T00:40:53;8.50;1.00
318;DHT22;146;53.448;10.228;2023-12-28T00:43:21;8.60;1.00
318;DHT22;146;53.448;10.228;2023-12-28T00:45:48;8.60;1.00
318;DHT22;146;53.448;10.228;2023-12-28T00:48:15;8.50;1.00
318;DHT22;146;53.448;10.228;2023-12-28T00:50:42;8.40;1.00
318;DHT22;146;53.448;10.228;2023-12-28T00:53:09;8.30;1.00
318;DHT22;146;53.448;10.228;2023-12-28T00:55:36;8.30;1.00
318;DHT22;146;53.448;10.228;2023-12-28T00:58:03;8.30;1.00
318;DHT22;146;53.448;10.228;2023-12-28T01:00:31;8.30;1.00
318;DHT22;146;53.448;10.228;2023-12-28T01:03:01;8.30;1.00
318;DHT22;146;53.448;10.228;2023-12-28T01:05:28;8.20;1.00
318;DHT22;146;53.448;10.228;2023-12-28T01:07:55;8.20;1.00
318;DHT22;146;53.448;10.228;2023-12-28T01:10:27;8.20;1.00
318;DHT22;146;53.448;10.228;2023-12-28T01:12:54;8.10;1.00
318;DHT22;146;53.448;10.228;2023-12-28T01:15:21;8.20;1.00
318;DHT22;146;53.448;10.228;2023-12-28T01:17:49;8.10;1.00
318;DHT22;146;53.448;10.228;2023-12-28T01:20:19;8.10;1.00
318;DHT22;146;53.448;10.228;2023-12-28T01:22:46;8.20;1.00
318;DHT22;146;53.448;10.228;2023-12-28T01:25:15;8.10;1.00
318;DHT22;146;53.448;10.228;2023-12-28T01:27:44;8.10;1.00
318;DHT22;146;53.448;10.228;2023-12-28T01:30:14;8.10;1.00
318;DHT22;146;53.448;10.228;2023-12-28T01:32:41;8.20;1.00
318;DHT22;146;53.448;10.228;2023-12-28T01:35:09;8.30;1.00
318;DHT22;146;53.448;10.228;2023-12-28T01:37:42;8.30;1.00
318;DHT22;146;53.448;10.228;2023-12-28T01:40:15;8.30;1.00
318;DHT22;146;53.448;10.228;2023-12-28T01:42:42;8.30;1.00
318;DHT22;146;53.448;10.228;2023-12-28T01:45:11;8.30;1.00
318;DHT22;146;53.448;10.228;2023-12-28T01:47:44;8.20;1.00
318;DHT22;146;53.448;10.228;2023-12-28T01:50:15;8.10;1.00
318;DHT22;146;53.448;10.228;2023-12-28T01:52:46;8.10;1.00
318;DHT22;146;53.448;10.228;2023-12-28T01:55:16;8.10;1.00
318;DHT22;146;53.448;10.228;2023-12-28T01:57:47;8.20;1.00
318;DHT22;146;53.448;10.228;2023-12-28T02:00:15;8.20;1.00
318;DHT22;146;53.448;10.228;2023-12-28T02:02:48;8.20;1.00
318;DHT22;146;53.448;10.228;2023-12-28T02:05:18;8.20;1.00
318;DHT22;146;53.448;10.228;2023-12-28T02:07:45;8.30;1.00
318;DHT22;146;53.448;10.228;2023-12-28T02:10:12;8.30;1.00
318;DHT22;146;53.448;10.228;2023-12-28T02:12:39;8.40;1.00
318;DHT22;146;53.448;10.228;2023-12-28T02:15:06;8.40;1.00
318;DHT22;146;53.448;10.228;2023-12-28T02:17:36;8.40;1.00
318;DHT22;146;53.448;10.228;2023-12-28T02:20:06;8.40;1.00
318;DHT22;146;53.448;10.228;2023-12-28T02:22:35;8.40;1.00
318;DHT22;146;53.448;10.228;2023-12-28T02:25:05;8.40;1.00
318;DHT22;146;53.448;10.228;2023-12-28T02:27:32;8.50;1.00
318;DHT22;146;53.448;10.228;2023-12-28T02:30:00;8.50;1.00
318;DHT22;146;53.448;10.228;2023-12-28T02:32:33;8.50;1.00
318;DHT22;146;53.448;10.228;2023-12-28T02:35:10;8.50;1.00
318;DHT22;146;53.448;10.228;2023-12-28T02:37:39;8.50;1.00
318;DHT22;146;53.448;10.228;2023-12-28T02:40:09;8.50;1.00
318;DHT22;146;53.448;10.228;2023-12-28T02:42:38;8.50;1.00
318;DHT22;146;53.448;10.228;2023-12-28T02:45:08;8.50;1.00
318;DHT22;146;53.448;10.228;2023-12-28T02:47:35;8.50;1.00
318;DHT22;146;53.448;10.228;2023-12-28T02:50:02;8.50;1.00
318;DHT22;146;53.448;10.228;2023-12-28T02:52:29;8.50;1.00
318;DHT22;146;53.448;10.228;2023-12-28T02:54:56;8.50;1.00
318;DHT22;146;53.448;10.228;2023-12-28T02:57:24;8.50;1.00
318;DHT22;146;53.448;10.228;2023-12-28T02:59:51;8.50;1.00
318;DHT22;146;53.448;10.228;2023-12-28T03:02:18;8.60;1.00
318;DHT22;146;53.448;10.228;2023-12-28T03:04:44;8.50;1.00
318;DHT22;146;53.448;10.228;2023-12-28T03:07:11;8.50;1.00
318;DHT22;146;53.448;10.228;2023-12-28T03:09:41;8.50;1.00
318;DHT22;146;53.448;10.228;2023-12-28T03:12:08;8.50;1.00
318;DHT22;146;53.448;10.228;2023-12-28T03:14:39;8.50;1.00
318;DHT22;146;53.448;10.228;2023-12-28T03:17:05;8.50;1.00
318;DHT22;146;53.448;10.228;2023-12-28T03:19:32;8.50;1.00
318;DHT22;146;53.448;10.228;2023-12-28T03:21:59;8.50;1.00
318;DHT22;146;53.448;10.228;2023-12-28T03:24:26;8.60;1.00
318;DHT22;146;53.448;10.228;2023-12-28T03:26:58;8.50;1.00
318;DHT22;146;53.448;10.228;2023-12-28T03:29:24;8.50;1.00
318;DHT22;146;53.448;10.228;2023-12-28T03:31:53;8.50;1.00
318;DHT22;146;53.448;10.228;2023-12-28T03:34:19;8.50;1.00
318;DHT22;146;53.448;10.228;2023-12-28T03:36:48;8.50;1.00
318;DHT22;146;53.448;10.228;2023-12-28T03:39:19;8.50;1.00
318;DHT22;146;53.448;10.228;2023-12-28T03:41:47;8.50;1.00
318;DHT22;146;53.448;10.228;2023-12-28T03:44:14;8.50;1.00
318;DHT22;146;53.448;10.228;2023-12-28T03:46:41;8.50;1.00
318;DHT22;146;53.448;10.228;2023-12-28T03:49:09;8.50;1.00
318;DHT22;146;53.448;10.228;2023-12-28T03:51:36;8.40;1.00
318;DHT22;146;53.448;10.228;2023-12-28T03:54:05;8.40;1.00
318;DHT22;146;53.448;10.228;2023-12-28T03:56:32;8.40;1.00
318;DHT22;146;53.448;10.228;2023-12-28T03:59:01;8.40;1.00
318;DHT22;146;53.448;10.228;2023-12-28T04:01:34;8.40;1.00
318;DHT22;146;53.448;10.228;2023-12-28T04:04:04;8.40;1.00
318;DHT22;146;53.448;10.228;2023-12-28T04:06:32;8.50;1.00
318;DHT22;146;53.448;10.228;2023-12-28T04:08:58;8.40;1.00
318;DHT22;146;53.448;10.228;2023-12-28T04:11:28;8.40;1.00
318;DHT22;146;53.448;10.228;2023-12-28T04:13:55;8.40;1.00
318;DHT22;146;53.448;10.228;2023-12-28T04:16:28;8.40;1.00
318;DHT22;146;53.448;10.228;2023-12-28T04:18:58;8.40;1.00
318;DHT22;146;53.448;10.228;2023-12-28T04:21:25;8.40;1.00
318;DHT22;146;53.448;10.228;2023-12-28T04:23:53;8.40;1.00
318;DHT22;146;53.448;10.228;2023-12-28T04:26:19;8.40;1.00
318;DHT22;146;53.448;10.228;2023-12-28T04:28:57;8.40;1.00
318;DHT22;146;53.448;10.228;2023-12-28T04:31:24;8.30;1.00
318;DHT22;146;53.448;10.228;2023-12-28T04:33:51;8.30;1.00
318;DHT22;146;53.448;10.228;2023-12-28T04:36:20;8.30;1.00
318;DHT22;146;53.448;10.228;2023-12-28T04:38:50;8.30;1.00
318;DHT22;146;53.448;10.228;2023-12-28T04:41:18;8.30;1.00
318;DHT22;146;53.448;10.228;2023-12-28T04:43:45;8.30;1.00
318;DHT22;146;53.448;10.228;2023-12-28T04:46:12;8.30;1.00
318;DHT22;146;53.448;10.228;2023-12-28T04:48:45;8.30;1.00
318;DHT22;146;53.448;10.228;2023-12-28T04:51:11;8.30;1.00
318;DHT22;146;53.448;10.228;2023-12-28T04:53:47;8.30;1.00
318;DHT22;146;53.448;10.228;2023-12-28T04:56:21;8.20;1.00
318;DHT22;146;53.448;10.228;2023-12-28T04:58:48;8.20;1.00
318;DHT22;146;53.448;10.228;2023-12-28T05:01:15;8.20;1.00
318;DHT22;146;53.448;10.228;2023-12-28T05:03:45;8.20;1.00
318;DHT22;146;53.448;10.228;2023-12-28T05:06:11;8.20;1.00
318;DHT22;146;53.448;10.228;2023-12-28T05:08:41;8.20;1.00
318;DHT22;146;53.448;10.228;2023-12-28T05:11:08;8.20;1.00
318;DHT22;146;53.448;10.228;2023-12-28T05:13:36;8.30;1.00
318;DHT22;146;53.448;10.228;2023-12-28T05:16:03;8.20;1.00
318;DHT22;146;53.448;10.228;2023-12-28T05:18:30;8.20;1.00
318;DHT22;146;53.448;10.228;2023-12-28T05:20:57;8.20;1.00
318;DHT22;146;53.448;10.228;2023-12-28T05:23:24;8.30;1.00
318;DHT22;146;53.448;10.228;2023-12-28T05:25:53;8.20;1.00
318;DHT22;146;53.448;10.228;2023-12-28T05:28:27;8.30;1.00
318;DHT22;146;53.448;10.228;2023-12-28T05:30:56;8.30;1.00
318;DHT22;146;53.448;10.228;2023-12-28T05:33:27;8.30;1.00
318;DHT22;146;53.448;10.228;2023-12-28T05:35:54;8.30;1.00
318;DHT22;146;53.448;10.228;2023-12-28T05:38:23;8.30;1.00
318;DHT22;146;53.448;10.228;2023-12-28T05:40:53;8.30;1.00
318;DHT22;146;53.448;10.228;2023-12-28T05:43:19;8.30;1.00
318;DHT22;146;53.448;10.228;2023-12-28T05:45:49;8.30;1.00
318;DHT22;146;53.448;10.228;2023-12-28T05:48:19;8.30;1.00
318;DHT22;146;53.448;10.228;2023-12-28T05:50:52;8.30;1.00
318;DHT22;146;53.448;10.228;2023-12-28T05:53:31;8.30;1.00
318;DHT22;146;53.448;10.228;2023-12-28T05:55:58;8.30;1.00
318;DHT22;146;53.448;10.228;2023-12-28T05:58:28;8.30;1.00
318;DHT22;146;53.448;10.228;2023-12-28T06:00:55;8.40;1.00
318;DHT22;146;53.448;10.228;2023-12-28T06:03:26;8.30;1.00
318;DHT22;146;53.448;10.228;2023-12-28T06:05:56;8.40;1.00
318;DHT22;146;53.448;10.228;2023-12-28T06:08:29;8.40;1.00
318;DHT22;146;53.448;10.228;2023-12-28T06:10:56;8.40;1.00
318;DHT22;146;53.448;10.228;2023-12-28T06:13:25;8.50;1.00
318;DHT22;146;53.448;10.228;2023-12-28T06:15:55;8.50;1.00
318;DHT22;146;53.448;10.228;2023-12-28T06:18:22;8.50;1.00
318;DHT22;146;53.448;10.228;2023-12-28T06:20:56;8.50;1.00
318;DHT22;146;53.448;10.228;2023-12-28T06:23:23;8.60;1.00
318;DHT22;146;53.448;10.228;2023-12-28T06:25:50;8.60;1.00
318;DHT22;146;53.448;10.228;2023-12-28T06:28:17;8.70;1.00
318;DHT22;146;53.448;10.228;2023-12-28T06:30:49;8.80;1.00
318;DHT22;146;53.448;10.228;2023-12-28T06:33:17;8.80;1.00
318;DHT22;146;53.448;10.228;2023-12-28T06:35:44;8.90;1.00
318;DHT22;146;53.448;10.228;2023-12-28T06:38:12;9.00;1.00
318;DHT22;146;53.448;10.228;2023-12-28T06:40:41;9.00;1.00
318;DHT22;146;53.448;10.228;2023-12-28T06:43:08;9.10;1.00
318;DHT22;146;53.448;10.228;2023-12-28T06:45:35;9.20;1.00
318;DHT22;146;53.448;10.228;2023-12-28T06:48:02;9.30;1.00
318;DHT22;146;53.448;10.228;2023-12-28T06:50:34;9.30;1.00
318;DHT22;146;53.448;10.228;2023-12-28T06:53:04;9.30;1.00
318;DHT22;146;53.448;10.228;2023-12-28T06:55:32;9.40;1.00
318;DHT22;146;53.448;10.228;2023-12-28T06:58:02;9.40;1.00
318;DHT22;146;53.448;10.228;2023-12-28T07:00:29;9.50;1.00
318;DHT22;146;53.448;10.228;2023-12-28T07:02:56;9.50;1.00
318;DHT22;146;53.448;10.228;2023-12-28T07:05:23;9.50;1.00
318;DHT22;146;53.448;10.228;2023-12-28T07:07:55;9.50;1.00
318;DHT22;146;53.448;10.228;2023-12-28T07:10:22;9.60;1.00
318;DHT22;146;53.448;10.228;2023-12-28T07:12:50;9.70;1.00
318;DHT22;146;53.448;10.228;2023-12-28T07:15:17;9.70;1.00
318;DHT22;146;53.448;10.228;2023-12-28T07:17:46;9.80;1.00
318;DHT22;146;53.448;10.228;2023-12-28T07:20:13;9.80;1.00
318;DHT22;146;53.448;10.228;2023-12-28T07:22:49;9.80;1.00
318;DHT22;146;53.448;10.228;2023-12-28T07:25:16;9.80;1.00
318;DHT22;146;53.448;10.228;2023-12-28T07:27:43;9.80;1.00
318;DHT22;146;53.448;10.228;2023-12-28T07:30:12;9.90;1.00
318;DHT22;146;53.448;10.228;2023-12-28T07:32:45;9.90;1.00
318;DHT22;146;53.448;10.228;2023-12-28T07:35:12;9.80;1.00
318;DHT22;146;53.448;10.228;2023-12-28T07:37:39;9.80;1.00
318;DHT22;146;53.448;10.228;2023-12-28T07:40:07;9.80;1.00
318;DHT22;146;53.448;10.228;2023-12-28T07:42:34;9.60;1.00
318;DHT22;146;53.448;10.228;2023-12-28T07:45:04;9.70;1.00
318;DHT22;146;53.448;10.228;2023-12-28T07:47:35;9.70;1.00
318;DHT22;146;53.448;10.228;2023-12-28T07:50:08;9.70;1.00
318;DHT22;146;53.448;10.228;2023-12-28T07:52:36;9.70;1.00
318;DHT22;146;53.448;10.228;2023-12-28T07:55:04;9.70;1.00
318;DHT22;146;53.448;10.228;2023-12-28T07:57:31;9.70;1.00
318;DHT22;146;53.448;10.228;2023-12-28T07:59:57;9.70;1.00
318;DHT22;146;53.448;10.228;2023-12-28T08:02:27;9.80;1.00
318;DHT22;146;53.448;10.228;2023-12-28T08:04:58;9.70;1.00
318;DHT22;146;53.448;10.228;2023-12-28T08:07:25;9.60;1.00
318;DHT22;146;53.448;10.228;2023-12-28T08:09:55;9.70;1.00
318;DHT22;146;53.448;10.228;2023-12-28T08:12:25;9.60;1.00
318;DHT22;146;53.448;10.228;2023-12-28T08:14:55;9.60;1.00
318;DHT22;146;53.448;10.228;2023-12-28T08:17:25;9.60;1.00
318;DHT22;146;53.448;10.228;2023-12-28T08:19:55;9.70;1.00
318;DHT22;146;53.448;10.228;2023-12-28T08:22:29;9.70;1.00
318;DHT22;146;53.448;10.228;2023-12-28T08:24:56;9.80;1.00
318;DHT22;146;53.448;10.228;2023-12-28T08:27:26;9.90;1.00
318;DHT22;146;53.448;10.228;2023-12-28T08:29:56;10.00;1.00
318;DHT22;146;53.448;10.228;2023-12-28T08:32:23;10.00;1.00
318;DHT22;146;53.448;10.228;2023-12-28T08:34:50;10.10;1.00
318;DHT22;146;53.448;10.228;2023-12-28T08:37:17;10.10;1.00
318;DHT22;146;53.448;10.228;2023-12-28T08:39:48;10.20;1.00
318;DHT22;146;53.448;10.228;2023-12-28T08:42:15;10.30;1.00
318;DHT22;146;53.448;10.228;2023-12-28T08:44:42;10.30;1.00
318;DHT22;146;53.448;10.228;2023-12-28T08:47:08;10.40;1.00
318;DHT22;146;53.448;10.228;2023-12-28T08:49:35;10.40;1.00
318;DHT22;146;53.448;10.228;2023-12-28T08:52:02;10.40;1.00
318;DHT22;146;53.448;10.228;2023-12-28T08:54:29;10.50;1.00
318;DHT22;146;53.448;10.228;2023-12-28T08:57:00;10.50;1.00
318;DHT22;146;53.448;10.228;2023-12-28T08:59:27;10.60;1.00
318;DHT22;146;53.448;10.228;2023-12-28T09:01:53;10.60;1.00
318;DHT22;146;53.448;10.228;2023-12-28T09:04:20;10.60;1.00
318;DHT22;146;53.448;10.228;2023-12-28T09:06:47;10.60;1.00
318;DHT22;146;53.448;10.228;2023-12-28T09:09:14;10.60;1.00
318;DHT22;146;53.448;10.228;2023-12-28T09:11:41;10.60;1.00
318;DHT22;146;53.448;10.228;2023-12-28T09:14:09;10.60;1.00
318;DHT22;146;53.448;10.228;2023-12-28T09:16:36;10.70;1.00
318;DHT22;146;53.448;10.228;2023-12-28T09:19:04;10.70;1.00
318;DHT22;146;53.448;10.228;2023-12-28T09:21:31;10.80;1.00
318;DHT22;146;53.448;10.228;2023-12-28T09:24:01;10.80;1.00
318;DHT22;146;53.448;10.228;2023-12-28T09:26:28;10.80;1.00
318;DHT22;146;53.448;10.228;2023-12-28T09:28:54;10.90;1.00
318;DHT22;146;53.448;10.228;2023-12-28T09:31:39;10.90;1.00
318;DHT22;146;53.448;10.228;2023-12-28T09:34:06;10.90;1.00
318;DHT22;146;53.448;10.228;2023-12-28T09:36:32;11.00;1.00
318;DHT22;146;53.448;10.228;2023-12-28T09:38:59;11.00;1.00
318;DHT22;146;53.448;10.228;2023-12-28T09:41:29;11.10;1.00
318;DHT22;146;53.448;10.228;2023-12-28T09:44:02;11.20;1.00
318;DHT22;146;53.448;10.228;2023-12-28T09:46:30;11.30;1.00
318;DHT22;146;53.448;10.228;2023-12-28T09:48:59;11.30;1.00
318;DHT22;146;53.448;10.228;2023-12-28T09:51:26;11.30;1.00
318;DHT22;146;53.448;10.228;2023-12-28T09:53:56;11.30;1.00
318;DHT22;146;53.448;10.228;2023-12-28T09:56:23;11.30;1.00
318;DHT22;146;53.448;10.228;2023-12-28T09:58:51;11.40;1.00
318;DHT22;146;53.448;10.228;2023-12-28T10:01:18;11.30;1.00
318;DHT22;146;53.448;10.228;2023-12-28T10:03:45;11.30;1.00
318;DHT22;146;53.448;10.228;2023-12-28T10:06:15;11.40;1.00
